EZY226 EGBB-EGAA
Flight info
| Callsign | EZY226 |
|---|---|
| Flight time | N/A |
| Altitude | 28000 |
| Route | LUVUM DCT NANTI L8 TADAL UL8 BILVO UP6 TUPEM DCT REMSI DCT UVPOK M147 ROBOP M146 IPSET P6 BELZU |
| Aircraft | A320/M-SDE3FGHIRWY/LB1 |
Departure
| Time | 2026-05-06 06:02 |
|---|---|
| Airport | Birmingham Airport (EGBB) |
Arrival
| Time | N/A |
|---|---|
| Airport | Belfast International Airport (EGAA) |
| Time | Latitude | Longitude | Altitude | Speed | Heading |
|---|---|---|---|---|---|
| 2026-05-06 05:33 | 52.45174 | -1.73749 | 331 ft | 0 kts | 326° |
| 2026-05-06 05:54 | 52.45173 | -1.73748 | 331 ft | 2 kts | 326° |
| 2026-05-06 05:55 | 52.45152 | -1.73724 | 327 ft | 4 kts | 323° |
| 2026-05-06 05:55 | 52.45133 | -1.73695 | 328 ft | 4 kts | 297° |
| 2026-05-06 05:55 | 52.45129 | -1.73657 | 328 ft | 3 kts | 238° |
| 2026-05-06 05:55 | 52.45130 | -1.73653 | 329 ft | 0 kts | 236° |
| 2026-05-06 05:58 | 52.45114 | -1.73693 | 328 ft | 9 kts | 236° |
| 2026-05-06 05:58 | 52.45068 | -1.73743 | 331 ft | 7 kts | 188° |
| 2026-05-06 05:58 | 52.45025 | -1.73734 | 328 ft | 6 kts | 162° |
| 2026-05-06 05:58 | 52.44993 | -1.73702 | 331 ft | 5 kts | 145° |
| 2026-05-06 05:59 | 52.44961 | -1.73665 | 327 ft | 6 kts | 145° |
| 2026-05-06 05:59 | 52.44929 | -1.73643 | 330 ft | 5 kts | 178° |
| 2026-05-06 05:59 | 52.44876 | -1.73664 | 329 ft | 8 kts | 194° |
| 2026-05-06 05:59 | 52.44826 | -1.73689 | 330 ft | 7 kts | 197° |
| 2026-05-06 06:00 | 52.44781 | -1.73711 | 330 ft | 6 kts | 197° |
| 2026-05-06 06:00 | 52.44735 | -1.73743 | 328 ft | 7 kts | 219° |
| 2026-05-06 06:00 | 52.44710 | -1.73804 | 329 ft | 6 kts | 238° |
| 2026-05-06 06:00 | 52.44693 | -1.73849 | 330 ft | 3 kts | 237° |
| 2026-05-06 06:01 | 52.44662 | -1.73930 | 329 ft | 10 kts | 245° |
| 2026-05-06 06:01 | 52.44681 | -1.74019 | 327 ft | 8 kts | 318° |
| 2026-05-06 06:01 | 52.44698 | -1.74039 | 326 ft | 0 kts | 325° |
| 2026-05-06 06:01 | 52.44752 | -1.74100 | 326 ft | 43 kts | 326° |
| 2026-05-06 06:02 | 52.45243 | -1.74647 | 327 ft | 125 kts | 325° |
| 2026-05-06 06:02 | 52.46138 | -1.75643 | 457 ft | 174 kts | 324° |
| 2026-05-06 06:02 | 52.47158 | -1.76860 | 1115 ft | 190 kts | 322° |
| 2026-05-06 06:02 | 52.48281 | -1.78205 | 1607 ft | 211 kts | 329° |
| 2026-05-06 06:03 | 52.49678 | -1.79154 | 2055 ft | 228 kts | 359° |
| 2026-05-06 06:03 | 52.51310 | -1.78897 | 2674 ft | 241 kts | 10° |
| 2026-05-06 06:03 | 52.52997 | -1.78506 | 3544 ft | 247 kts | 8° |
| 2026-05-06 06:03 | 52.54718 | -1.78129 | 4472 ft | 251 kts | 7° |
| 2026-05-06 06:04 | 52.56462 | -1.77764 | 5412 ft | 253 kts | 6° |
| 2026-05-06 06:04 | 52.57981 | -1.77455 | 5816 ft | 258 kts | 6° |
| 2026-05-06 06:04 | 52.59766 | -1.77091 | 5978 ft | 258 kts | 6° |